Time;durP1;ratioP1;P1;durP2;ratioP2;P2;SDS_P1;SDS_P2;PMS_P1;PMS_P2;Temp;Humidity;BMP_temperature;BMP_pressure;BME280_temperature;BME280_humidity;BME280_pressure;Samples;Min_cycle;Max_cycle;Signal;HPM_P1;HPM_P2
2020/12/01 00:00:27;;;;;;;1999.90;999.90;;;;;;;4.37;64.13;101076.34;15748864;28;20048;-62
2020/12/01 00:08:02;;;;;;;1999.90;999.90;;;;;;;4.54;63.63;101078.75;15738506;28;20498;-63
2020/12/01 00:15:34;;;;;;;1999.90;999.90;;;;;;;4.27;64.01;101084.66;15730290;28;20299;-61
2020/12/01 00:23:08;;;;;;;1999.90;999.90;;;;;;;4.38;63.28;101083.56;15747473;28;20102;-62
2020/12/01 00:30:42;;;;;;;1999.90;999.90;;;;;;;4.37;63.34;101081.88;15712894;28;20124;-63
2020/12/01 00:38:16;;;;;;;1999.90;999.90;;;;;;;4.41;63.41;101055.34;15744426;28;20173;-62
2020/12/01 00:45:49;;;;;;;1999.90;999.90;;;;;;;4.48;63.36;101041.19;15745663;28;20040;-63
2020/12/01 00:53:22;;;;;;;1999.90;999.90;;;;;;;4.57;62.77;101048.59;15746462;28;20552;-61
2020/12/01 01:00:55;;;;;;;;;;;;;;;4.26;64.27;101038.81;15795915;28;20489;-61
2020/12/01 01:08:30;;;;;;;1999.90;999.90;;;;;;;4.27;64.50;101027.50;15762902;28;20358;-63
2020/12/01 01:16:03;;;;;;;1999.90;999.90;;;;;;;4.58;63.13;101028.16;15754196;28;20483;-63
2020/12/01 01:23:37;;;;;;;1999.90;999.90;;;;;;;4.43;63.67;101019.94;15807898;28;20505;-60
2020/12/01 01:31:09;;;;;;;;;;;;;;;4.78;62.62;101024.44;15804659;28;20120;-63
2020/12/01 01:38:44;;;;;;;1999.90;999.90;;;;;;;4.72;62.89;101017.31;15796441;28;19927;-62
2020/12/01 01:46:34;;;;;;;1999.90;999.90;;;;;;;4.87;61.94;101006.13;15732793;28;20049;-62
2020/12/01 01:54:10;;;;;;;1999.90;999.90;;;;;;;4.89;61.75;101003.06;15743201;28;20048;-63
2020/12/01 02:01:42;;;;;;;1999.90;999.90;;;;;;;4.57;62.47;100993.34;15796616;28;20036;-61
2020/12/01 02:09:19;;;;;;;1999.90;999.90;;;;;;;4.67;62.30;100986.09;15801243;28;20047;-63
2020/12/01 02:16:53;;;;;;;1999.90;999.90;;;;;;;4.67;62.50;100988.84;15782650;28;20049;-63
2020/12/01 02:24:27;;;;;;;1999.90;999.90;;;;;;;4.78;62.60;100979.38;15804864;28;20075;-63
2020/12/01 02:32:02;;;;;;;1999.90;999.90;;;;;;;4.75;62.55;100985.47;15799750;28;20224;-63
2020/12/01 02:39:35;;;;;;;1999.90;999.90;;;;;;;4.76;62.87;100982.44;15781052;28;20033;-63
2020/12/01 02:47:10;;;;;;;1999.90;999.90;;;;;;;4.59;63.13;100979.25;15740014;28;20044;-62
2020/12/01 02:54:42;;;;;;;1999.90;999.90;;;;;;;4.38;64.41;100967.50;15740798;28;20494;-63
2020/12/01 03:02:16;;;;;;;1999.90;999.90;;;;;;;4.57;64.09;100984.22;15738624;28;20148;-62
2020/12/01 03:09:48;;;;;;;1999.90;999.90;;;;;;;4.64;64.09;100974.50;15746288;28;20045;-61
2020/12/01 03:17:22;;;;;;;1999.90;999.90;;;;;;;4.61;65.14;100972.31;15769553;28;20040;-62
2020/12/01 03:24:54;;;;;;;1999.90;999.90;;;;;;;4.76;65.09;100973.31;15812444;28;20066;-59
2020/12/01 03:32:28;;;;;;;1999.90;999.90;;;;;;;4.82;65.54;100974.94;15812296;28;20040;-61
2020/12/01 03:40:00;;;;;;;1999.90;999.90;;;;;;;4.52;66.99;100975.97;15787812;28;20128;-62
2020/12/01 03:47:34;;;;;;;1999.90;999.90;;;;;;;4.61;67.15;100958.50;15748916;28;20064;-61
2020/12/01 03:55:08;;;;;;;1999.90;999.90;;;;;;;4.42;68.37;100951.16;15748541;28;20289;-63
2020/12/01 04:02:42;;;;;;;1999.90;999.90;;;;;;;4.59;67.82;100948.84;15732541;28;20048;-62
2020/12/01 04:10:17;;;;;;;1999.90;999.90;;;;;;;4.51;68.09;100960.50;15747356;28;20049;-61
2020/12/01 04:17:51;;;;;;;1999.90;999.90;;;;;;;4.78;66.98;100957.25;15748088;28;20569;-62
2020/12/01 04:25:25;;;;;;;1999.90;999.90;;;;;;;4.89;66.69;100967.94;15746563;28;20575;-61
2020/12/01 04:32:58;;;;;;;1999.90;999.90;;;;;;;4.83;66.95;100966.34;15748170;28;20060;-63
2020/12/01 04:40:36;;;;;;;1999.90;999.90;;;;;;;4.72;67.14;100967.53;15745407;28;20032;-62
2020/12/01 04:48:16;;;;;;;1999.90;999.90;;;;;;;4.39;68.19;100957.28;15744814;28;20063;-63
2020/12/01 04:56:09;;;;;;;1999.90;999.90;;;;;;;4.56;67.17;100949.41;15750967;28;20585;-61
2020/12/01 05:04:08;;;;;;;1999.90;999.90;;;;;;;4.49;67.48;100955.28;15806487;28;20044;-63
2020/12/01 05:11:46;;;;;;;1999.90;999.90;;;;;;;4.24;68.55;100961.75;15748033;28;20044;-62
2020/12/01 05:19:40;;;;;;;1999.90;999.90;;;;;;;4.25;68.36;100968.09;15776713;28;20039;-63
2020/12/01 05:27:25;;;;;;;1999.90;999.90;;;;;;;4.50;67.97;100970.72;15782743;28;20037;-62
2020/12/01 05:35:18;;;;;;;1999.90;999.90;;;;;;;4.22;68.41;100983.31;15741506;28;20320;-63
2020/12/01 05:42:51;;;;;;;1999.90;999.90;;;;;;;4.31;68.38;100983.56;15740436;28;20047;-61
2020/12/01 05:50:32;;;;;;;1999.90;999.90;;;;;;;4.16;68.75;100989.13;15741248;28;20048;-61
2020/12/01 05:58:08;;;;;;;1999.90;999.90;;;;;;;4.21;68.58;100998.25;15746966;28;20056;-63
2020/12/01 06:05:45;;;;;;;1999.90;999.90;;;;;;;4.26;68.39;101005.66;15779845;28;20090;-62
2020/12/01 06:13:32;;;;;;;1999.90;999.90;;;;;;;4.31;68.17;101019.47;15786527;28;20048;-62
2020/12/01 06:21:09;;;;;;;1999.90;999.90;;;;;;;4.21;67.85;101012.06;15747613;28;20045;-62
2020/12/01 06:28:59;;;;;;;1999.90;999.90;;;;;;;4.28;67.98;101001.53;15740329;28;20055;-62
2020/12/01 06:37:12;;;;;;;1999.90;999.90;;;;;;;4.37;67.83;101001.75;15751687;28;20421;-61
2020/12/01 06:44:51;;;;;;;1999.90;999.90;;;;;;;4.44;67.81;101010.56;15748786;28;20548;-62
2020/12/01 06:52:26;;;;;;;1999.90;999.90;;;;;;;4.09;69.30;101021.78;15751139;28;20048;-62
2020/12/01 06:59:59;;;;;;;1999.90;999.90;;;;;;;4.15;69.63;101026.16;15752402;28;20036;-63
2020/12/01 07:07:35;;;;;;;1999.90;999.90;;;;;;;4.43;68.75;101027.41;15770764;28;20070;-62
2020/12/01 07:15:16;;;;;;;1999.90;999.90;;;;;;;4.41;68.45;101043.47;15810140;28;20466;-60
2020/12/01 07:22:55;;;;;;;1999.90;999.90;;;;;;;4.46;68.74;101049.78;15744922;28;20071;-62
2020/12/01 07:30:31;;;;;;;1999.90;999.90;;;;;;;4.35;68.60;101037.13;15750869;28;20414;-61
2020/12/01 07:38:21;;;;;;;1999.90;999.90;;;;;;;4.65;68.09;101058.25;15767823;28;20041;-63
2020/12/01 07:46:02;;;;;;;1999.90;999.90;;;;;;;4.58;68.19;101069.59;15756532;28;20127;-63
2020/12/01 07:53:43;;;;;;;1999.90;999.90;;;;;;;4.74;67.60;101069.53;15812266;28;20573;-55
2020/12/01 08:01:17;;;;;;;1999.90;999.90;;;;;;;4.73;67.87;101090.84;15754781;28;20489;-58
2020/12/01 08:08:50;;;;;;;1999.90;999.90;;;;;;;4.86;66.55;101090.19;15741252;28;20148;-59
2020/12/01 08:16:26;;;;;;;1999.90;999.90;;;;;;;4.85;66.92;101088.53;15728631;28;20490;-60
2020/12/01 08:24:04;;;;;;;1999.90;999.90;;;;;;;4.85;67.48;101087.72;15688701;28;20560;-64
2020/12/01 08:31:47;;;;;;;1999.90;999.90;;;;;;;5.00;66.80;101090.38;15799660;28;20047;-57
2020/12/01 08:39:35;;;;;;;1999.90;999.90;;;;;;;5.03;66.58;101092.59;15783620;28;20080;-59
2020/12/01 08:47:10;;;;;;;1999.90;999.90;;;;;;;5.03;66.29;101108.34;15745214;28;20294;-58
2020/12/01 08:54:53;;;;;;;1999.90;999.90;;;;;;;5.35;65.40;101113.38;15728558;28;20140;-63
2020/12/01 09:02:37;;;;;;;1999.90;999.90;;;;;;;5.50;65.11;101116.03;15743965;28;20115;-59
2020/12/01 09:10:17;;;;;;;1999.90;999.90;;;;;;;5.13;66.30;101127.66;15743449;28;20482;-58
2020/12/01 09:18:03;;;;;;;1999.90;999.90;;;;;;;5.17;65.76;101123.19;15756025;28;20048;-60
2020/12/01 09:25:37;;;;;;;1999.90;999.90;;;;;;;5.38;65.32;101129.41;15740960;28;20571;-61
2020/12/01 09:33:13;;;;;;;1999.90;999.90;;;;;;;5.65;64.48;101132.50;15696579;28;20402;-61
2020/12/01 09:40:49;;;;;;;1999.90;999.90;;;;;;;5.57;65.07;101140.59;15737396;28;20068;-61
2020/12/01 09:48:27;;;;;;;1999.90;999.90;;;;;;;5.43;63.98;101154.28;15741343;28;20044;-62
2020/12/01 10:35:23;;;;;;;1999.90;999.90;;;;;;;5.61;64.33;101181.25;15793165;28;20102;-60
2020/12/01 10:42:57;;;;;;;1999.90;999.90;;;;;;;5.80;63.29;101178.63;15692004;28;20043;-59
2020/12/01 10:50:31;;;;;;;;;;;;;;;6.13;62.47;101181.69;15767919;28;20079;-57
2020/12/01 10:58:03;;;;;;;;;;;;;;;6.09;62.77;101200.84;15790194;28;19920;-58
2020/12/01 11:05:37;;;;;;;1999.90;999.90;;;;;;;6.21;62.61;101190.19;15789651;28;19969;-59
2020/12/01 11:13:10;;;;;;;1999.90;999.90;;;;;;;6.27;62.09;101197.34;15800416;28;20090;-58
2020/12/01 11:20:44;;;;;;;1999.90;999.90;;;;;;;6.88;60.30;101207.75;15761084;28;20049;-58
2020/12/01 11:28:16;;;;;;;1999.90;999.90;;;;;;;6.55;60.77;101201.19;15763221;28;20040;-59
2020/12/01 11:35:50;;;;;;;1999.90;999.90;;;;;;;6.94;60.40;101214.06;15800230;28;20119;-59
2020/12/01 11:43:22;;;;;;;1999.90;999.90;;;;;;;6.82;60.77;101216.44;15738925;28;20069;-59
2020/12/01 11:50:57;;;;;;;;;;;;;;;7.05;59.78;101220.28;15738491;28;20094;-60
2020/12/01 11:58:29;;;;;;;1999.90;999.90;;;;;;;6.78;60.59;101210.66;15766213;28;19971;-59
2020/12/01 12:06:03;;;;;;;1999.90;999.90;;;;;;;7.15;60.00;101220.16;15762626;28;20056;-61
2020/12/01 12:14:41;;;;;;;1999.90;999.90;;;;;;;6.74;61.68;101220.66;15746429;28;20505;-59
2020/12/01 12:23:56;;;;;;;;;;;;;;;;;;;;;
2020/12/01 12:31:39;;;;;;;1999.90;999.90;;;;;;;6.28;62.89;101232.25;15724870;28;20067;-56
2020/12/01 12:39:13;;;;;;;1999.90;999.90;;;;;;;6.57;62.77;101234.19;15745878;28;20040;-58
2020/12/01 12:46:46;;;;;;;;;;;;;;;6.68;62.48;101243.22;15745951;28;20494;-59
2020/12/01 12:54:20;;;;;;;1999.90;999.90;;;;;;;6.61;62.10;101249.13;15718130;28;20373;-56
2020/12/01 13:01:55;;;;;;;1999.90;999.90;;;;;;;6.34;63.44;101269.06;15718315;28;20128;-57
2020/12/01 13:09:27;;;;;;;1999.90;999.90;;;;;;;6.54;62.77;101268.03;15721547;28;20094;-58
2020/12/01 13:17:01;;;;;;;1999.90;999.90;;;;;;;6.37;64.20;101262.94;15744505;28;20454;-59
2020/12/01 13:24:33;;;;;;;1999.90;999.90;;;;;;;6.16;63.78;101275.34;15745526;28;20040;-58
2020/12/01 13:32:09;;;;;;;1999.90;999.90;;;;;;;6.69;63.56;101287.31;15747276;28;20383;-59
2020/12/01 13:39:42;;;;;;;1999.90;999.90;;;;;;;6.56;62.83;101294.34;15728057;28;20045;-60
2020/12/01 13:47:15;;;;;;;1999.90;999.90;;;;;;;6.69;63.14;101300.34;15680040;28;20053;-59
2020/12/01 13:54:48;;;;;;;1999.90;999.90;;;;;;;6.40;62.88;101312.25;15679479;28;20152;-58
2020/12/01 14:02:21;;;;;;;1999.90;999.90;;;;;;;6.42;61.82;101326.66;15681190;28;20059;-57
2020/12/01 14:09:54;;;;;;;;;;;;;;;6.73;61.13;101326.38;15681893;28;20045;-58
2020/12/01 14:17:28;;;;;;;1999.90;999.90;;;;;;;6.63;61.19;101339.22;15679401;28;20441;-53
2020/12/01 14:25:00;;;;;;;1999.90;999.90;;;;;;;6.49;61.85;101340.19;15680551;28;20422;-59
2020/12/01 14:32:34;;;;;;;1999.90;999.90;;;;;;;6.83;61.74;101345.69;15678520;28;20098;-57
2020/12/01 14:40:09;;;;;;;1999.90;999.90;;;;;;;6.57;62.05;101358.97;15700608;28;20582;-59
2020/12/01 14:48:00;;;;;;;1999.90;999.90;;;;;;;6.82;62.48;101371.78;15740274;28;20474;-59
2020/12/01 14:55:49;;;;;;;1999.90;999.90;;;;;;;6.67;62.87;101383.84;15741112;28;20053;-58
2020/12/01 15:03:51;;;;;;;1999.90;999.90;;;;;;;6.53;64.28;101413.34;15744378;28;20490;-59
2020/12/01 15:11:40;;;;;;;1999.90;999.90;;;;;;;6.76;62.23;101422.84;15753148;28;20073;-59
2020/12/01 15:19:13;;;;;;;1999.90;999.90;;;;;;;6.43;61.54;101435.59;15751301;28;20047;-57
2020/12/01 15:26:48;;;;;;;1999.90;999.90;;;;;;;6.43;60.52;101444.75;15751890;28;20090;-59
2020/12/01 15:34:25;;;;;;;1999.90;999.90;;;;;;;6.44;60.29;101440.84;15750164;28;20052;-57
2020/12/01 15:42:00;;;;;;;1999.90;999.90;;;;;;;6.57;60.53;101454.09;15712114;28;20087;-62
2020/12/01 15:49:35;;;;;;;1999.90;999.90;;;;;;;6.58;61.08;101472.38;15691392;28;20045;-60
2020/12/01 15:57:36;;;;;;;1999.90;999.90;;;;;;;6.66;60.89;101482.84;15743836;28;20040;-61
2020/12/01 16:05:47;;;;;;;1999.90;999.90;;;;;;;6.43;61.10;101493.81;15726012;28;20045;-57
2020/12/01 16:13:46;;;;;;;1999.90;999.90;;;;;;;6.26;61.85;101503.34;15668621;28;20110;-57
2020/12/01 16:21:27;;;;;;;1999.90;999.90;;;;;;;6.41;61.73;101515.47;15756778;28;20056;-59
2020/12/01 16:29:18;;;;;;;1999.90;999.90;;;;;;;6.38;61.81;101516.03;15745456;28;20067;-59
2020/12/01 16:37:24;;;;;;;1999.90;999.90;;;;;;;6.35;62.41;101529.34;15684453;28;20055;-60
2020/12/01 16:45:04;;;;;;;1999.90;999.90;;;;;;;6.22;61.61;101527.19;15685186;28;20045;-57
2020/12/01 16:52:57;;;;;;;1999.90;999.90;;;;;;;6.10;62.71;101539.72;15685206;28;20498;-62
2020/12/01 17:00:41;;;;;;;1999.90;999.90;;;;;;;6.16;62.54;101555.22;15684459;28;20052;-60
2020/12/01 17:08:15;;;;;;;1999.90;999.90;;;;;;;6.47;61.19;101573.38;15684135;28;20041;-59
2020/12/01 17:16:16;;;;;;;1999.90;999.90;;;;;;;6.56;62.18;101577.19;15684008;28;20494;-58
2020/12/01 17:23:50;;;;;;;1999.90;999.90;;;;;;;6.24;63.52;101576.78;15683020;28;20044;-58
2020/12/01 17:31:40;;;;;;;1999.90;999.90;;;;;;;5.87;65.47;101591.84;15681680;28;20487;-57
2020/12/01 17:39:25;;;;;;;1999.90;999.90;;;;;;;6.29;64.25;101605.34;15682322;28;20071;-55
2020/12/01 17:47:14;;;;;;;1999.90;999.90;;;;;;;6.02;65.06;101613.16;15683619;28;20041;-58
2020/12/01 17:54:48;;;;;;;1999.90;999.90;;;;;;;5.66;65.66;101618.75;15682581;28;20056;-60
2020/12/01 18:02:20;;;;;;;1999.90;999.90;;;;;;;5.47;66.02;101624.00;15681008;28;20047;-63
2020/12/01 18:09:54;;;;;;;1999.90;999.90;;;;;;;5.48;65.28;101633.13;15680567;28;20049;-60
2020/12/01 18:18:01;;;;;;;1999.90;999.90;;;;;;;5.26;66.80;101636.19;15681162;28;20051;-61
2020/12/01 18:25:41;;;;;;;1999.90;999.90;;;;;;;5.45;65.46;101634.53;15669203;28;20091;-61
2020/12/01 18:33:23;;;;;;;1999.90;999.90;;;;;;;5.26;66.05;101647.25;15723072;28;20551;-57
2020/12/01 18:41:02;;;;;;;1999.90;999.90;;;;;;;5.18;66.50;101645.00;15739526;28;20445;-59
2020/12/01 18:48:38;;;;;;;1999.90;999.90;;;;;;;4.92;67.73;101664.34;15719810;28;20044;-58
2020/12/01 18:56:12;;;;;;;1999.90;999.90;;;;;;;5.17;66.92;101665.50;15706369;28;20057;-58
2020/12/01 19:03:45;;;;;;;1999.90;999.90;;;;;;;4.85;67.73;101666.50;15704267;28;20044;-58
2020/12/01 19:11:19;;;;;;;1999.90;999.90;;;;;;;4.81;68.15;101676.47;15705135;28;20506;-60
2020/12/01 19:18:55;;;;;;;1999.90;999.90;;;;;;;4.67;68.57;101682.75;15706020;28;20049;-60
2020/12/01 19:26:28;;;;;;;1999.90;999.90;;;;;;;4.54;68.77;101686.84;15704101;28;20057;-58
2020/12/01 19:34:01;;;;;;;1999.90;999.90;;;;;;;4.47;69.42;101706.44;15705101;28;20843;-60
2020/12/01 19:41:35;;;;;;;1999.90;999.90;;;;;;;4.19;70.29;101713.19;15706064;28;20411;-60
2020/12/01 19:49:08;;;;;;;1999.90;999.90;;;;;;;4.15;69.87;101708.44;15705192;28;20307;-56
2020/12/01 19:56:41;;;;;;;1999.90;999.90;;;;;;;3.81;70.67;101716.22;15713623;28;20059;-57
2020/12/01 20:04:17;;;;;;;1999.90;999.90;;;;;;;3.52;71.71;101724.78;15714526;28;20045;-55
2020/12/01 20:11:51;;;;;;;1999.90;999.90;;;;;;;3.31;72.37;101734.78;15712953;28;20032;-58
2020/12/01 20:19:24;;;;;;;1999.90;999.90;;;;;;;3.41;72.11;101734.88;15712981;28;20056;-57
2020/12/01 20:26:58;;;;;;;1999.90;999.90;;;;;;;3.49;72.06;101741.88;15714071;28;20177;-59
2020/12/01 20:34:32;;;;;;;1999.90;999.90;;;;;;;3.59;70.48;101757.69;15703020;28;20067;-59
2020/12/01 20:42:06;;;;;;;1999.90;999.90;;;;;;;3.43;71.47;101765.81;15720551;28;20051;-58
2020/12/01 20:49:38;;;;;;;1999.90;999.90;;;;;;;3.24;72.10;101756.25;15746525;28;20043;-60
2020/12/01 20:57:12;;;;;;;1999.90;999.90;;;;;;;3.26;71.70;101767.00;15747715;28;20413;-59
2020/12/01 21:04:45;;;;;;;;;;;;;;;3.09;71.97;101764.31;15746020;28;20054;-59
2020/12/01 21:12:26;;;;;;;1999.90;999.90;;;;;;;3.40;71.18;101777.38;15744830;28;20285;-57
2020/12/01 21:19:59;;;;;;;1999.90;999.90;;;;;;;3.07;72.00;101774.78;15746097;28;20094;-61
2020/12/01 21:27:37;;;;;;;1999.90;999.90;;;;;;;3.37;70.79;101777.06;15744450;28;20040;-58
2020/12/01 21:35:10;;;;;;;1999.90;999.90;;;;;;;3.06;71.50;101773.97;15727589;28;20048;-59
2020/12/01 21:43:07;;;;;;;1999.90;999.90;;;;;;;3.24;70.78;101783.00;15701197;28;20045;-62
2020/12/01 21:50:40;;;;;;;1999.90;999.90;;;;;;;2.87;71.33;101787.22;15680448;28;20124;-62
2020/12/01 21:58:29;;;;;;;1999.90;999.90;;;;;;;2.77;72.37;101778.81;15679849;28;20048;-59
2020/12/01 22:06:41;;;;;;;1999.90;999.90;;;;;;;2.80;71.95;101789.31;15680175;28;20052;-59
2020/12/01 22:14:28;;;;;;;1999.90;999.90;;;;;;;2.53;73.03;101800.25;15658674;28;20057;-61
2020/12/01 22:22:16;;;;;;;1999.90;999.90;;;;;;;2.38;73.26;101819.31;15677636;28;20071;-60
2020/12/01 22:30:07;;;;;;;1999.90;999.90;;;;;;;2.36;73.74;101821.47;15678822;28;20557;-60
2020/12/01 22:37:43;;;;;;;1999.90;999.90;;;;;;;2.26;73.41;101810.28;15681684;28;20065;-60
2020/12/01 22:45:44;;;;;;;1999.90;999.90;;;;;;;2.39;73.69;101834.75;15740726;28;20044;-57
2020/12/01 22:53:50;;;;;;;1999.90;999.90;;;;;;;2.47;72.29;101830.75;15737972;28;20221;-58
2020/12/01 23:01:25;;;;;;;1999.90;999.90;;;;;;;2.11;73.50;101830.16;15739909;28;20460;-57
2020/12/01 23:09:04;;;;;;;1999.90;999.90;;;;;;;2.20;73.20;101827.84;15741469;28;20052;-60
2020/12/01 23:16:40;;;;;;;1999.90;999.90;;;;;;;1.92;74.21;101826.81;15739757;28;20048;-58
2020/12/01 23:24:13;;;;;;;1999.90;999.90;;;;;;;1.91;73.39;101827.06;15741691;28;20126;-58
2020/12/01 23:31:47;;;;;;;1999.90;999.90;;;;;;;1.66;74.70;101825.50;15752619;28;20106;-57
2020/12/01 23:39:20;;;;;;;1999.90;999.90;;;;;;;1.58;75.03;101825.91;15737148;28;20481;-59
2020/12/01 23:46:58;;;;;;;1999.90;999.90;;;;;;;1.83;74.41;101835.72;15689313;28;20091;-59
2020/12/01 23:54:31;;;;;;;1999.90;999.90;;;;;;;1.58;74.77;101830.59;15689036;28;20045;-57
